Nutwood, Illinois
Current Conditions -  °F | °C
As of 3:54 AM on Tuesday 21 Oct 2014 (Local Time) from KSET Reporting Station
Clear Clear  
Wind Chill: 39°   Ceiling: Unl
Heat Index: 42°   Visibility: 10mi
Dew Point: 41°   Wind: 5mph
Humidity: 96%   Direction: 210°SSW
Pressure: 30.03"   Gusts: NA
Location:  39.1226°N, 90.5371°W
Report Text: KSET 210854Z AUTO 21004KT 10SM CLR 06/05 A3003 RMK AO1 SLP167 T00560050 51004
Loading
Personal Weather Stations






























Interactive Weather Map
Tropical Storm Tracking
New forecast layout! Learn more

10-Day Weather Forecast

Advertisements
Track Severe Weather on mobile